sensor_id;sensor_type;location;lat;lon;timestamp;P1;P2;P0
31330;PMS5003;34067;39.548;-76.088;2023-05-17T00:00:18;11;10;
31330;PMS5003;34067;39.548;-76.088;2023-05-17T00:02:46;8;8;
31330;PMS5003;34067;39.548;-76.088;2023-05-17T00:05:15;9;8;
31330;PMS5003;34067;39.548;-76.088;2023-05-17T00:07:43;9;9;
31330;PMS5003;34067;39.548;-76.088;2023-05-17T00:10:11;7;7;
31330;PMS5003;34067;39.548;-76.088;2023-05-17T00:12:39;9;8;
31330;PMS5003;34067;39.548;-76.088;2023-05-17T00:15:07;11;10;
31330;PMS5003;34067;39.548;-76.088;2023-05-17T00:17:35;8;8;
31330;PMS5003;34067;39.548;-76.088;2023-05-17T00:20:03;9;8;
31330;PMS5003;34067;39.548;-76.088;2023-05-17T00:22:32;9;9;
31330;PMS5003;34067;39.548;-76.088;2023-05-17T00:25:00;9;9;
31330;PMS5003;34067;39.548;-76.088;2023-05-17T00:27:28;9;9;
31330;PMS5003;34067;39.548;-76.088;2023-05-17T00:29:55;9;8;
31330;PMS5003;34067;39.548;-76.088;2023-05-17T00:32:23;10;10;
31330;PMS5003;34067;39.548;-76.088;2023-05-17T00:34:51;7;7;
31330;PMS5003;34067;39.548;-76.088;2023-05-17T00:37:19;15;15;
31330;PMS5003;34067;39.548;-76.088;2023-05-17T00:39:47;20;19;
31330;PMS5003;34067;39.548;-76.088;2023-05-17T00:42:15;35;35;
31330;PMS5003;34067;39.548;-76.088;2023-05-17T00:44:43;15;14;
31330;PMS5003;34067;39.548;-76.088;2023-05-17T00:47:11;32;30;
31330;PMS5003;34067;39.548;-76.088;2023-05-17T00:49:38;42;41;
31330;PMS5003;34067;39.548;-76.088;2023-05-17T00:52:06;21;20;
31330;PMS5003;34067;39.548;-76.088;2023-05-17T00:54:34;22;21;
31330;PMS5003;34067;39.548;-76.088;2023-05-17T00:57:02;28;28;
31330;PMS5003;34067;39.548;-76.088;2023-05-17T00:59:31;31;30;
31330;PMS5003;34067;39.548;-76.088;2023-05-17T01:01:59;16;15;
31330;PMS5003;34067;39.548;-76.088;2023-05-17T01:04:27;13;13;
31330;PMS5003;34067;39.548;-76.088;2023-05-17T01:06:56;15;14;
31330;PMS5003;34067;39.548;-76.088;2023-05-17T01:09:24;66;66;
31330;PMS5003;34067;39.548;-76.088;2023-05-17T01:11:53;29;29;
31330;PMS5003;34067;39.548;-76.088;2023-05-17T01:14:36;42;41;
31330;PMS5003;34067;39.548;-76.088;2023-05-17T01:17:16;30;30;
31330;PMS5003;34067;39.548;-76.088;2023-05-17T01:19:54;19;19;
31330;PMS5003;34067;39.548;-76.088;2023-05-17T01:22:35;21;21;
31330;PMS5003;34067;39.548;-76.088;2023-05-17T01:25:14;17;17;
31330;PMS5003;34067;39.548;-76.088;2023-05-17T01:27:54;61;60;
31330;PMS5003;34067;39.548;-76.088;2023-05-17T01:30:25;21;21;
31330;PMS5003;34067;39.548;-76.088;2023-05-17T01:32:56;19;19;
31330;PMS5003;34067;39.548;-76.088;2023-05-17T01:35:25;51;50;
31330;PMS5003;34067;39.548;-76.088;2023-05-17T01:37:53;83;82;
31330;PMS5003;34067;39.548;-76.088;2023-05-17T01:40:21;64;63;
31330;PMS5003;34067;39.548;-76.088;2023-05-17T01:42:52;19;19;
31330;PMS5003;34067;39.548;-76.088;2023-05-17T01:45:24;18;17;
31330;PMS5003;34067;39.548;-76.088;2023-05-17T01:48:02;26;26;
31330;PMS5003;34067;39.548;-76.088;2023-05-17T01:50:38;31;31;
31330;PMS5003;34067;39.548;-76.088;2023-05-17T01:53:10;46;46;
31330;PMS5003;34067;39.548;-76.088;2023-05-17T01:55:48;23;23;
31330;PMS5003;34067;39.548;-76.088;2023-05-17T01:58:19;22;22;
31330;PMS5003;34067;39.548;-76.088;2023-05-17T02:00:51;25;25;
31330;PMS5003;34067;39.548;-76.088;2023-05-17T02:03:22;20;19;
31330;PMS5003;34067;39.548;-76.088;2023-05-17T02:05:50;21;21;
31330;PMS5003;34067;39.548;-76.088;2023-05-17T02:08:18;36;36;
31330;PMS5003;34067;39.548;-76.088;2023-05-17T02:10:45;58;57;
31330;PMS5003;34067;39.548;-76.088;2023-05-17T02:13:13;137;136;
31330;PMS5003;34067;39.548;-76.088;2023-05-17T02:15:41;23;22;
31330;PMS5003;34067;39.548;-76.088;2023-05-17T02:18:09;23;23;
31330;PMS5003;34067;39.548;-76.088;2023-05-17T02:20:36;51;50;
31330;PMS5003;34067;39.548;-76.088;2023-05-17T02:23:04;30;29;
31330;PMS5003;34067;39.548;-76.088;2023-05-17T02:25:32;23;23;
31330;PMS5003;34067;39.548;-76.088;2023-05-17T02:28:01;48;47;
31330;PMS5003;34067;39.548;-76.088;2023-05-17T02:30:29;32;31;
31330;PMS5003;34067;39.548;-76.088;2023-05-17T02:32:56;48;48;
31330;PMS5003;34067;39.548;-76.088;2023-05-17T02:35:24;95;95;
31330;PMS5003;34067;39.548;-76.088;2023-05-17T02:37:52;104;104;
31330;PMS5003;34067;39.548;-76.088;2023-05-17T02:40:20;85;85;
31330;PMS5003;34067;39.548;-76.088;2023-05-17T02:42:47;145;145;
31330;PMS5003;34067;39.548;-76.088;2023-05-17T02:45:15;82;82;
31330;PMS5003;34067;39.548;-76.088;2023-05-17T02:47:43;72;72;
31330;PMS5003;34067;39.548;-76.088;2023-05-17T02:50:12;109;109;
31330;PMS5003;34067;39.548;-76.088;2023-05-17T02:52:39;121;120;
31330;PMS5003;34067;39.548;-76.088;2023-05-17T02:55:07;72;72;
31330;PMS5003;34067;39.548;-76.088;2023-05-17T02:57:35;122;122;
31330;PMS5003;34067;39.548;-76.088;2023-05-17T03:00:04;97;96;
31330;PMS5003;34067;39.548;-76.088;2023-05-17T03:02:33;106;105;
31330;PMS5003;34067;39.548;-76.088;2023-05-17T03:05:01;98;97;
31330;PMS5003;34067;39.548;-76.088;2023-05-17T03:07:28;95;95;
31330;PMS5003;34067;39.548;-76.088;2023-05-17T03:09:56;122;122;
31330;PMS5003;34067;39.548;-76.088;2023-05-17T03:12:23;120;120;
31330;PMS5003;34067;39.548;-76.088;2023-05-17T03:14:51;97;97;
31330;PMS5003;34067;39.548;-76.088;2023-05-17T03:17:19;124;124;
31330;PMS5003;34067;39.548;-76.088;2023-05-17T03:19:47;44;44;
31330;PMS5003;34067;39.548;-76.088;2023-05-17T03:22:15;40;40;
31330;PMS5003;34067;39.548;-76.088;2023-05-17T03:24:43;41;40;
31330;PMS5003;34067;39.548;-76.088;2023-05-17T03:27:11;53;52;
31330;PMS5003;34067;39.548;-76.088;2023-05-17T03:29:38;59;58;
31330;PMS5003;34067;39.548;-76.088;2023-05-17T03:32:06;98;98;
31330;PMS5003;34067;39.548;-76.088;2023-05-17T03:34:35;142;140;
31330;PMS5003;34067;39.548;-76.088;2023-05-17T03:37:03;127;126;
31330;PMS5003;34067;39.548;-76.088;2023-05-17T03:39:31;82;81;
31330;PMS5003;34067;39.548;-76.088;2023-05-17T03:41:58;90;90;
31330;PMS5003;34067;39.548;-76.088;2023-05-17T03:44:26;111;111;
31330;PMS5003;34067;39.548;-76.088;2023-05-17T03:46:55;86;86;
31330;PMS5003;34067;39.548;-76.088;2023-05-17T03:49:22;83;83;
31330;PMS5003;34067;39.548;-76.088;2023-05-17T03:51:50;84;82;
31330;PMS5003;34067;39.548;-76.088;2023-05-17T03:54:18;76;76;
31330;PMS5003;34067;39.548;-76.088;2023-05-17T03:56:46;88;87;
31330;PMS5003;34067;39.548;-76.088;2023-05-17T03:59:14;95;93;
31330;PMS5003;34067;39.548;-76.088;2023-05-17T04:01:42;90;89;
31330;PMS5003;34067;39.548;-76.088;2023-05-17T04:04:10;56;56;
31330;PMS5003;34067;39.548;-76.088;2023-05-17T04:06:38;82;82;
31330;PMS5003;34067;39.548;-76.088;2023-05-17T04:09:05;109;108;
31330;PMS5003;34067;39.548;-76.088;2023-05-17T04:11:33;75;75;
31330;PMS5003;34067;39.548;-76.088;2023-05-17T04:14:01;16;15;
31330;PMS5003;34067;39.548;-76.088;2023-05-17T04:16:30;16;16;
31330;PMS5003;34067;39.548;-76.088;2023-05-17T04:18:58;13;12;
31330;PMS5003;34067;39.548;-76.088;2023-05-17T04:21:26;14;12;
31330;PMS5003;34067;39.548;-76.088;2023-05-17T04:23:54;18;17;
31330;PMS5003;34067;39.548;-76.088;2023-05-17T04:26:22;11;11;
31330;PMS5003;34067;39.548;-76.088;2023-05-17T04:28:50;14;14;
31330;PMS5003;34067;39.548;-76.088;2023-05-17T04:31:18;14;14;
31330;PMS5003;34067;39.548;-76.088;2023-05-17T04:33:46;12;12;
31330;PMS5003;34067;39.548;-76.088;2023-05-17T04:36:14;17;16;
31330;PMS5003;34067;39.548;-76.088;2023-05-17T04:38:42;14;13;
31330;PMS5003;34067;39.548;-76.088;2023-05-17T04:41:10;16;14;
31330;PMS5003;34067;39.548;-76.088;2023-05-17T04:43:38;14;14;
31330;PMS5003;34067;39.548;-76.088;2023-05-17T04:46:06;15;14;
31330;PMS5003;34067;39.548;-76.088;2023-05-17T04:48:34;18;16;
31330;PMS5003;34067;39.548;-76.088;2023-05-17T04:51:02;16;15;
31330;PMS5003;34067;39.548;-76.088;2023-05-17T04:53:30;15;15;
31330;PMS5003;34067;39.548;-76.088;2023-05-17T04:55:58;15;15;
31330;PMS5003;34067;39.548;-76.088;2023-05-17T04:58:28;14;14;
31330;PMS5003;34067;39.548;-76.088;2023-05-17T05:03:10;15;13;
31330;PMS5003;34067;39.548;-76.088;2023-05-17T05:05:38;15;13;
31330;PMS5003;34067;39.548;-76.088;2023-05-17T05:08:07;15;14;
31330;PMS5003;34067;39.548;-76.088;2023-05-17T05:10:34;19;18;
31330;PMS5003;34067;39.548;-76.088;2023-05-17T05:13:02;12;12;
31330;PMS5003;34067;39.548;-76.088;2023-05-17T05:15:30;14;13;
31330;PMS5003;34067;39.548;-76.088;2023-05-17T05:17:58;16;16;
31330;PMS5003;34067;39.548;-76.088;2023-05-17T05:20:26;15;13;
31330;PMS5003;34067;39.548;-76.088;2023-05-17T05:22:54;14;14;
31330;PMS5003;34067;39.548;-76.088;2023-05-17T05:25:22;11;10;
31330;PMS5003;34067;39.548;-76.088;2023-05-17T05:27:50;16;16;
31330;PMS5003;34067;39.548;-76.088;2023-05-17T05:30:18;11;11;
31330;PMS5003;34067;39.548;-76.088;2023-05-17T05:32:46;14;14;
31330;PMS5003;34067;39.548;-76.088;2023-05-17T05:35:13;16;15;
31330;PMS5003;34067;39.548;-76.088;2023-05-17T05:37:42;13;12;
31330;PMS5003;34067;39.548;-76.088;2023-05-17T05:40:10;14;13;
31330;PMS5003;34067;39.548;-76.088;2023-05-17T05:42:38;13;13;
31330;PMS5003;34067;39.548;-76.088;2023-05-17T05:45:09;15;15;
31330;PMS5003;34067;39.548;-76.088;2023-05-17T05:47:38;12;12;
31330;PMS5003;34067;39.548;-76.088;2023-05-17T05:50:06;13;12;
31330;PMS5003;34067;39.548;-76.088;2023-05-17T05:52:34;14;13;
31330;PMS5003;34067;39.548;-76.088;2023-05-17T05:55:02;13;13;
31330;PMS5003;34067;39.548;-76.088;2023-05-17T05:57:30;16;15;
31330;PMS5003;34067;39.548;-76.088;2023-05-17T05:59:58;16;16;
31330;PMS5003;34067;39.548;-76.088;2023-05-17T06:02:27;14;14;
31330;PMS5003;34067;39.548;-76.088;2023-05-17T06:04:55;14;14;
31330;PMS5003;34067;39.548;-76.088;2023-05-17T06:07:23;14;13;
31330;PMS5003;34067;39.548;-76.088;2023-05-17T06:09:51;15;13;
31330;PMS5003;34067;39.548;-76.088;2023-05-17T06:12:19;17;15;
31330;PMS5003;34067;39.548;-76.088;2023-05-17T06:14:47;14;13;
31330;PMS5003;34067;39.548;-76.088;2023-05-17T06:17:15;12;12;
31330;PMS5003;34067;39.548;-76.088;2023-05-17T06:19:43;9;9;
31330;PMS5003;34067;39.548;-76.088;2023-05-17T06:22:11;15;15;
31330;PMS5003;34067;39.548;-76.088;2023-05-17T06:24:39;15;15;
31330;PMS5003;34067;39.548;-76.088;2023-05-17T06:27:07;17;16;
31330;PMS5003;34067;39.548;-76.088;2023-05-17T06:29:35;12;12;
31330;PMS5003;34067;39.548;-76.088;2023-05-17T06:32:03;17;13;
31330;PMS5003;34067;39.548;-76.088;2023-05-17T06:34:32;15;14;
31330;PMS5003;34067;39.548;-76.088;2023-05-17T06:37:00;11;11;
31330;PMS5003;34067;39.548;-76.088;2023-05-17T06:39:27;17;16;
31330;PMS5003;34067;39.548;-76.088;2023-05-17T06:41:55;15;14;
31330;PMS5003;34067;39.548;-76.088;2023-05-17T06:44:23;12;12;
31330;PMS5003;34067;39.548;-76.088;2023-05-17T06:46:51;12;12;
31330;PMS5003;34067;39.548;-76.088;2023-05-17T06:49:19;12;11;
31330;PMS5003;34067;39.548;-76.088;2023-05-17T06:51:47;17;15;
31330;PMS5003;34067;39.548;-76.088;2023-05-17T06:54:14;14;13;
31330;PMS5003;34067;39.548;-76.088;2023-05-17T06:56:42;14;13;
31330;PMS5003;34067;39.548;-76.088;2023-05-17T06:59:10;17;15;
31330;PMS5003;34067;39.548;-76.088;2023-05-17T07:01:38;12;12;
31330;PMS5003;34067;39.548;-76.088;2023-05-17T07:04:06;15;14;
31330;PMS5003;34067;39.548;-76.088;2023-05-17T07:06:34;16;13;
31330;PMS5003;34067;39.548;-76.088;2023-05-17T07:09:02;16;13;
31330;PMS5003;34067;39.548;-76.088;2023-05-17T07:11:30;13;13;
31330;PMS5003;34067;39.548;-76.088;2023-05-17T07:13:58;15;14;
31330;PMS5003;34067;39.548;-76.088;2023-05-17T07:16:26;15;15;
31330;PMS5003;34067;39.548;-76.088;2023-05-17T07:18:54;13;12;
31330;PMS5003;34067;39.548;-76.088;2023-05-17T07:21:22;13;12;
31330;PMS5003;34067;39.548;-76.088;2023-05-17T07:23:50;13;13;
31330;PMS5003;34067;39.548;-76.088;2023-05-17T07:26:18;15;14;
31330;PMS5003;34067;39.548;-76.088;2023-05-17T07:28:47;15;15;
31330;PMS5003;34067;39.548;-76.088;2023-05-17T07:31:15;16;13;
31330;PMS5003;34067;39.548;-76.088;2023-05-17T07:33:43;12;12;
31330;PMS5003;34067;39.548;-76.088;2023-05-17T07:36:11;13;13;
31330;PMS5003;34067;39.548;-76.088;2023-05-17T07:38:39;14;13;
31330;PMS5003;34067;39.548;-76.088;2023-05-17T07:41:07;17;15;
31330;PMS5003;34067;39.548;-76.088;2023-05-17T07:43:35;14;14;
31330;PMS5003;34067;39.548;-76.088;2023-05-17T07:46:03;12;12;
31330;PMS5003;34067;39.548;-76.088;2023-05-17T07:48:31;11;11;
31330;PMS5003;34067;39.548;-76.088;2023-05-17T07:50:59;14;13;
31330;PMS5003;34067;39.548;-76.088;2023-05-17T07:53:27;14;14;
31330;PMS5003;34067;39.548;-76.088;2023-05-17T07:55:55;13;13;
31330;PMS5003;34067;39.548;-76.088;2023-05-17T07:58:22;12;11;
31330;PMS5003;34067;39.548;-76.088;2023-05-17T08:00:50;13;13;
31330;PMS5003;34067;39.548;-76.088;2023-05-17T08:03:18;11;10;
31330;PMS5003;34067;39.548;-76.088;2023-05-17T08:05:46;15;15;
31330;PMS5003;34067;39.548;-76.088;2023-05-17T08:08:14;11;11;
31330;PMS5003;34067;39.548;-76.088;2023-05-17T08:10:41;10;8;
31330;PMS5003;34067;39.548;-76.088;2023-05-17T08:13:09;11;10;
31330;PMS5003;34067;39.548;-76.088;2023-05-17T08:15:37;11;10;
31330;PMS5003;34067;39.548;-76.088;2023-05-17T08:18:05;9;9;
31330;PMS5003;34067;39.548;-76.088;2023-05-17T08:20:33;10;9;
31330;PMS5003;34067;39.548;-76.088;2023-05-17T08:23:01;10;10;
31330;PMS5003;34067;39.548;-76.088;2023-05-17T08:25:29;12;11;
31330;PMS5003;34067;39.548;-76.088;2023-05-17T08:27:57;9;9;
31330;PMS5003;34067;39.548;-76.088;2023-05-17T08:30:25;10;9;
31330;PMS5003;34067;39.548;-76.088;2023-05-17T08:32:53;12;12;
31330;PMS5003;34067;39.548;-76.088;2023-05-17T08:35:21;11;10;
31330;PMS5003;34067;39.548;-76.088;2023-05-17T08:37:49;9;9;
31330;PMS5003;34067;39.548;-76.088;2023-05-17T08:40:17;10;10;
31330;PMS5003;34067;39.548;-76.088;2023-05-17T08:42:47;12;12;
31330;PMS5003;34067;39.548;-76.088;2023-05-17T08:45:18;9;9;
31330;PMS5003;34067;39.548;-76.088;2023-05-17T08:47:47;11;11;
31330;PMS5003;34067;39.548;-76.088;2023-05-17T08:50:15;10;9;
31330;PMS5003;34067;39.548;-76.088;2023-05-17T08:52:44;10;9;
31330;PMS5003;34067;39.548;-76.088;2023-05-17T08:55:12;8;8;
31330;PMS5003;34067;39.548;-76.088;2023-05-17T08:57:40;9;9;
31330;PMS5003;34067;39.548;-76.088;2023-05-17T09:00:08;13;10;
31330;PMS5003;34067;39.548;-76.088;2023-05-17T09:02:41;10;10;
31330;PMS5003;34067;39.548;-76.088;2023-05-17T09:05:09;10;9;
31330;PMS5003;34067;39.548;-76.088;2023-05-17T09:07:37;12;11;
31330;PMS5003;34067;39.548;-76.088;2023-05-17T09:10:05;9;8;
31330;PMS5003;34067;39.548;-76.088;2023-05-17T09:12:34;8;8;
31330;PMS5003;34067;39.548;-76.088;2023-05-17T09:15:18;17;14;
31330;PMS5003;34067;39.548;-76.088;2023-05-17T09:17:50;11;11;
31330;PMS5003;34067;39.548;-76.088;2023-05-17T09:20:22;10;10;
31330;PMS5003;34067;39.548;-76.088;2023-05-17T09:22:50;9;9;
31330;PMS5003;34067;39.548;-76.088;2023-05-17T09:25:19;8;7;
31330;PMS5003;34067;39.548;-76.088;2023-05-17T09:27:51;11;11;
31330;PMS5003;34067;39.548;-76.088;2023-05-17T09:30:19;9;7;
31330;PMS5003;34067;39.548;-76.088;2023-05-17T09:32:53;11;9;
31330;PMS5003;34067;39.548;-76.088;2023-05-17T09:35:26;8;8;
31330;PMS5003;34067;39.548;-76.088;2023-05-17T09:37:54;7;7;
31330;PMS5003;34067;39.548;-76.088;2023-05-17T09:40:32;9;8;
31330;PMS5003;34067;39.548;-76.088;2023-05-17T09:43:03;9;8;
31330;PMS5003;34067;39.548;-76.088;2023-05-17T09:45:31;9;9;
31330;PMS5003;34067;39.548;-76.088;2023-05-17T09:48:09;11;10;
31330;PMS5003;34067;39.548;-76.088;2023-05-17T09:50:43;10;8;
31330;PMS5003;34067;39.548;-76.088;2023-05-17T09:53:22;10;8;
31330;PMS5003;34067;39.548;-76.088;2023-05-17T09:55:52;9;9;
31330;PMS5003;34067;39.548;-76.088;2023-05-17T09:58:22;10;9;
31330;PMS5003;34067;39.548;-76.088;2023-05-17T10:00:52;10;8;
31330;PMS5003;34067;39.548;-76.088;2023-05-17T10:03:21;9;9;
31330;PMS5003;34067;39.548;-76.088;2023-05-17T10:05:49;11;10;
31330;PMS5003;34067;39.548;-76.088;2023-05-17T10:08:20;10;10;
31330;PMS5003;34067;39.548;-76.088;2023-05-17T10:10:49;10;10;
31330;PMS5003;34067;39.548;-76.088;2023-05-17T10:13:20;10;9;
31330;PMS5003;34067;39.548;-76.088;2023-05-17T10:15:49;12;11;
31330;PMS5003;34067;39.548;-76.088;2023-05-17T10:18:19;13;12;
31330;PMS5003;34067;39.548;-76.088;2023-05-17T10:20:47;10;10;
31330;PMS5003;34067;39.548;-76.088;2023-05-17T10:23:15;10;10;
31330;PMS5003;34067;39.548;-76.088;2023-05-17T10:25:44;9;7;
31330;PMS5003;34067;39.548;-76.088;2023-05-17T10:28:13;9;9;
31330;PMS5003;34067;39.548;-76.088;2023-05-17T10:30:43;12;11;
31330;PMS5003;34067;39.548;-76.088;2023-05-17T10:33:13;11;10;
31330;PMS5003;34067;39.548;-76.088;2023-05-17T10:35:43;9;9;
31330;PMS5003;34067;39.548;-76.088;2023-05-17T10:38:13;12;12;
31330;PMS5003;34067;39.548;-76.088;2023-05-17T10:40:42;13;10;
31330;PMS5003;34067;39.548;-76.088;2023-05-17T10:43:12;10;10;
31330;PMS5003;34067;39.548;-76.088;2023-05-17T10:45:42;13;13;
31330;PMS5003;34067;39.548;-76.088;2023-05-17T10:48:13;15;14;
31330;PMS5003;34067;39.548;-76.088;2023-05-17T10:50:44;17;15;
31330;PMS5003;34067;39.548;-76.088;2023-05-17T10:53:13;17;15;
31330;PMS5003;34067;39.548;-76.088;2023-05-17T10:55:41;15;14;
31330;PMS5003;34067;39.548;-76.088;2023-05-17T10:58:14;15;13;
31330;PMS5003;34067;39.548;-76.088;2023-05-17T11:00:44;11;10;
31330;PMS5003;34067;39.548;-76.088;2023-05-17T11:03:14;11;11;
31330;PMS5003;34067;39.548;-76.088;2023-05-17T11:05:44;12;11;
31330;PMS5003;34067;39.548;-76.088;2023-05-17T11:08:42;14;13;
31330;PMS5003;34067;39.548;-76.088;2023-05-17T11:11:11;14;13;
31330;PMS5003;34067;39.548;-76.088;2023-05-17T11:13:43;10;10;
31330;PMS5003;34067;39.548;-76.088;2023-05-17T11:16:13;20;20;
31330;PMS5003;34067;39.548;-76.088;2023-05-17T11:18:45;8;8;
31330;PMS5003;34067;39.548;-76.088;2023-05-17T11:21:15;9;8;
31330;PMS5003;34067;39.548;-76.088;2023-05-17T11:23:43;7;7;
31330;PMS5003;34067;39.548;-76.088;2023-05-17T11:26:12;10;9;
31330;PMS5003;34067;39.548;-76.088;2023-05-17T11:28:43;5;5;
31330;PMS5003;34067;39.548;-76.088;2023-05-17T11:31:11;9;8;
31330;PMS5003;34067;39.548;-76.088;2023-05-17T11:33:41;6;6;
31330;PMS5003;34067;39.548;-76.088;2023-05-17T11:36:14;9;8;
31330;PMS5003;34067;39.548;-76.088;2023-05-17T11:38:47;7;7;
31330;PMS5003;34067;39.548;-76.088;2023-05-17T11:41:16;7;6;
31330;PMS5003;34067;39.548;-76.088;2023-05-17T11:43:45;6;6;
31330;PMS5003;34067;39.548;-76.088;2023-05-17T11:46:18;6;5;
31330;PMS5003;34067;39.548;-76.088;2023-05-17T11:48:48;6;6;
31330;PMS5003;34067;39.548;-76.088;2023-05-17T11:51:18;5;5;
31330;PMS5003;34067;39.548;-76.088;2023-05-17T11:53:46;5;4;
31330;PMS5003;34067;39.548;-76.088;2023-05-17T11:56:14;7;6;
31330;PMS5003;34067;39.548;-76.088;2023-05-17T11:58:42;7;6;
31330;PMS5003;34067;39.548;-76.088;2023-05-17T12:01:10;8;7;
31330;PMS5003;34067;39.548;-76.088;2023-05-17T12:03:39;6;5;
31330;PMS5003;34067;39.548;-76.088;2023-05-17T12:06:07;7;6;
31330;PMS5003;34067;39.548;-76.088;2023-05-17T12:08:37;6;6;
31330;PMS5003;34067;39.548;-76.088;2023-05-17T12:11:06;4;4;
31330;PMS5003;34067;39.548;-76.088;2023-05-17T12:13:40;5;5;
31330;PMS5003;34067;39.548;-76.088;2023-05-17T12:16:09;8;7;
31330;PMS5003;34067;39.548;-76.088;2023-05-17T12:18:39;5;5;
31330;PMS5003;34067;39.548;-76.088;2023-05-17T12:21:08;6;6;
31330;PMS5003;34067;39.548;-76.088;2023-05-17T12:23:40;6;5;
31330;PMS5003;34067;39.548;-76.088;2023-05-17T12:26:10;6;5;
31330;PMS5003;34067;39.548;-76.088;2023-05-17T12:28:38;7;7;
31330;PMS5003;34067;39.548;-76.088;2023-05-17T12:31:08;4;4;
31330;PMS5003;34067;39.548;-76.088;2023-05-17T12:33:38;5;5;
31330;PMS5003;34067;39.548;-76.088;2023-05-17T12:36:08;8;5;
31330;PMS5003;34067;39.548;-76.088;2023-05-17T12:38:38;5;4;
31330;PMS5003;34067;39.548;-76.088;2023-05-17T12:41:07;4;4;
31330;PMS5003;34067;39.548;-76.088;2023-05-17T12:43:37;6;5;
31330;PMS5003;34067;39.548;-76.088;2023-05-17T12:46:06;4;4;
31330;PMS5003;34067;39.548;-76.088;2023-05-17T12:48:35;7;6;
31330;PMS5003;34067;39.548;-76.088;2023-05-17T12:51:05;7;6;
31330;PMS5003;34067;39.548;-76.088;2023-05-17T12:53:35;7;6;
31330;PMS5003;34067;39.548;-76.088;2023-05-17T12:56:04;6;5;
31330;PMS5003;34067;39.548;-76.088;2023-05-17T12:58:33;5;5;
31330;PMS5003;34067;39.548;-76.088;2023-05-17T13:01:03;4;4;
31330;PMS5003;34067;39.548;-76.088;2023-05-17T13:03:31;5;4;
31330;PMS5003;34067;39.548;-76.088;2023-05-17T13:06:00;6;4;
31330;PMS5003;34067;39.548;-76.088;2023-05-17T13:08:29;6;5;
31330;PMS5003;34067;39.548;-76.088;2023-05-17T13:11:14;6;6;
31330;PMS5003;34067;39.548;-76.088;2023-05-17T13:13:42;7;5;
31330;PMS5003;34067;39.548;-76.088;2023-05-17T13:16:10;6;5;
31330;PMS5003;34067;39.548;-76.088;2023-05-17T13:18:53;5;4;
31330;PMS5003;34067;39.548;-76.088;2023-05-17T13:21:22;5;5;
31330;PMS5003;34067;39.548;-76.088;2023-05-17T13:23:49;5;5;
31330;PMS5003;34067;39.548;-76.088;2023-05-17T13:26:19;6;5;
31330;PMS5003;34067;39.548;-76.088;2023-05-17T13:28:47;3;3;
31330;PMS5003;34067;39.548;-76.088;2023-05-17T13:31:15;6;6;
31330;PMS5003;34067;39.548;-76.088;2023-05-17T13:33:43;4;4;
31330;PMS5003;34067;39.548;-76.088;2023-05-17T13:36:12;6;6;
31330;PMS5003;34067;39.548;-76.088;2023-05-17T13:38:40;6;6;
31330;PMS5003;34067;39.548;-76.088;2023-05-17T13:41:09;5;5;
31330;PMS5003;34067;39.548;-76.088;2023-05-17T13:43:37;9;9;
31330;PMS5003;34067;39.548;-76.088;2023-05-17T13:46:05;7;5;
31330;PMS5003;34067;39.548;-76.088;2023-05-17T13:48:33;6;6;
31330;PMS5003;34067;39.548;-76.088;2023-05-17T13:51:02;4;4;
31330;PMS5003;34067;39.548;-76.088;2023-05-17T13:53:29;7;6;
31330;PMS5003;34067;39.548;-76.088;2023-05-17T13:55:57;8;6;
31330;PMS5003;34067;39.548;-76.088;2023-05-17T13:58:25;5;5;
31330;PMS5003;34067;39.548;-76.088;2023-05-17T14:00:53;5;5;
31330;PMS5003;34067;39.548;-76.088;2023-05-17T14:03:21;5;4;
31330;PMS5003;34067;39.548;-76.088;2023-05-17T14:05:49;5;5;
31330;PMS5003;34067;39.548;-76.088;2023-05-17T14:08:18;6;6;
31330;PMS5003;34067;39.548;-76.088;2023-05-17T14:10:46;5;4;
31330;PMS5003;34067;39.548;-76.088;2023-05-17T14:13:14;4;4;
31330;PMS5003;34067;39.548;-76.088;2023-05-17T14:15:42;4;4;
31330;PMS5003;34067;39.548;-76.088;2023-05-17T14:18:10;4;4;
31330;PMS5003;34067;39.548;-76.088;2023-05-17T14:20:38;4;4;
31330;PMS5003;34067;39.548;-76.088;2023-05-17T14:23:06;6;4;
31330;PMS5003;34067;39.548;-76.088;2023-05-17T14:25:34;6;6;
31330;PMS5003;34067;39.548;-76.088;2023-05-17T14:28:03;8;7;
31330;PMS5003;34067;39.548;-76.088;2023-05-17T14:30:31;6;6;
31330;PMS5003;34067;39.548;-76.088;2023-05-17T14:32:58;4;4;
31330;PMS5003;34067;39.548;-76.088;2023-05-17T14:35:26;4;4;
31330;PMS5003;34067;39.548;-76.088;2023-05-17T14:37:54;4;4;
31330;PMS5003;34067;39.548;-76.088;2023-05-17T14:40:22;5;5;
31330;PMS5003;34067;39.548;-76.088;2023-05-17T14:42:50;5;4;
31330;PMS5003;34067;39.548;-76.088;2023-05-17T14:45:19;5;5;
31330;PMS5003;34067;39.548;-76.088;2023-05-17T14:47:47;32;32;
31330;PMS5003;34067;39.548;-76.088;2023-05-17T14:50:15;18;18;
31330;PMS5003;34067;39.548;-76.088;2023-05-17T14:52:43;18;18;
31330;PMS5003;34067;39.548;-76.088;2023-05-17T14:55:11;24;24;
31330;PMS5003;34067;39.548;-76.088;2023-05-17T14:57:38;9;9;
31330;PMS5003;34067;39.548;-76.088;2023-05-17T15:00:07;14;14;
31330;PMS5003;34067;39.548;-76.088;2023-05-17T15:02:36;26;26;
31330;PMS5003;34067;39.548;-76.088;2023-05-17T15:05:05;17;17;
31330;PMS5003;34067;39.548;-76.088;2023-05-17T15:07:34;10;10;
31330;PMS5003;34067;39.548;-76.088;2023-05-17T15:10:03;25;25;
31330;PMS5003;34067;39.548;-76.088;2023-05-17T15:12:32;36;36;
31330;PMS5003;34067;39.548;-76.088;2023-05-17T15:15:02;4;4;
31330;PMS5003;34067;39.548;-76.088;2023-05-17T15:17:30;12;12;
31330;PMS5003;34067;39.548;-76.088;2023-05-17T15:19:58;25;25;
31330;PMS5003;34067;39.548;-76.088;2023-05-17T15:22:26;13;13;
31330;PMS5003;34067;39.548;-76.088;2023-05-17T15:24:53;3;3;
31330;PMS5003;34067;39.548;-76.088;2023-05-17T15:27:21;10;9;
31330;PMS5003;34067;39.548;-76.088;2023-05-17T15:29:49;46;46;
31330;PMS5003;34067;39.548;-76.088;2023-05-17T15:32:17;12;10;
31330;PMS5003;34067;39.548;-76.088;2023-05-17T15:34:45;52;52;
31330;PMS5003;34067;39.548;-76.088;2023-05-17T15:37:13;45;44;
31330;PMS5003;34067;39.548;-76.088;2023-05-17T15:39:41;17;17;
31330;PMS5003;34067;39.548;-76.088;2023-05-17T15:42:09;4;3;
31330;PMS5003;34067;39.548;-76.088;2023-05-17T15:44:37;17;17;
31330;PMS5003;34067;39.548;-76.088;2023-05-17T15:47:05;14;13;
31330;PMS5003;34067;39.548;-76.088;2023-05-17T15:49:33;6;5;
31330;PMS5003;34067;39.548;-76.088;2023-05-17T15:52:01;4;4;
31330;PMS5003;34067;39.548;-76.088;2023-05-17T15:54:29;5;4;
31330;PMS5003;34067;39.548;-76.088;2023-05-17T15:56:57;5;5;
31330;PMS5003;34067;39.548;-76.088;2023-05-17T15:59:25;4;4;
31330;PMS5003;34067;39.548;-76.088;2023-05-17T16:01:53;3;3;
31330;PMS5003;34067;39.548;-76.088;2023-05-17T16:04:21;4;4;
31330;PMS5003;34067;39.548;-76.088;2023-05-17T16:06:49;7;5;
31330;PMS5003;34067;39.548;-76.088;2023-05-17T16:09:17;7;5;